sensor_id;sensor_type;location;lat;lon;timestamp;temperature;humidity
28161;DHT22;15448;51.956;7.670;2022-07-19T00:01:44;23.90;52.30
28161;DHT22;15448;51.956;7.670;2022-07-19T00:04:10;23.90;52.40
28161;DHT22;15448;51.956;7.670;2022-07-19T00:06:36;23.90;52.50
28161;DHT22;15448;51.956;7.670;2022-07-19T00:09:02;23.80;52.40
28161;DHT22;15448;51.956;7.670;2022-07-19T00:11:28;23.90;52.50
28161;DHT22;15448;51.956;7.670;2022-07-19T00:13:53;23.80;52.50
28161;DHT22;15448;51.956;7.670;2022-07-19T00:16:19;23.80;52.60
28161;DHT22;15448;51.956;7.670;2022-07-19T00:18:44;23.80;52.60
28161;DHT22;15448;51.956;7.670;2022-07-19T00:21:10;23.80;52.70
28161;DHT22;15448;51.956;7.670;2022-07-19T00:23:35;23.80;52.80
28161;DHT22;15448;51.956;7.670;2022-07-19T00:26:02;23.80;52.80
28161;DHT22;15448;51.956;7.670;2022-07-19T00:28:27;23.80;52.90
28161;DHT22;15448;51.956;7.670;2022-07-19T00:30:53;23.80;52.90
28161;DHT22;15448;51.956;7.670;2022-07-19T00:33:19;23.80;52.90
28161;DHT22;15448;51.956;7.670;2022-07-19T00:35:45;23.80;52.90
28161;DHT22;15448;51.956;7.670;2022-07-19T00:38:13;23.70;52.90
28161;DHT22;15448;51.956;7.670;2022-07-19T00:40:39;23.70;53.00
28161;DHT22;15448;51.956;7.670;2022-07-19T00:43:10;23.70;53.10
28161;DHT22;15448;51.956;7.670;2022-07-19T00:45:36;23.70;53.20
28161;DHT22;15448;51.956;7.670;2022-07-19T00:48:03;23.70;53.20
28161;DHT22;15448;51.956;7.670;2022-07-19T00:50:29;23.70;53.20
28161;DHT22;15448;51.956;7.670;2022-07-19T00:52:59;23.70;53.20
28161;DHT22;15448;51.956;7.670;2022-07-19T00:55:28;23.70;53.20
28161;DHT22;15448;51.956;7.670;2022-07-19T00:57:56;23.60;53.30
28161;DHT22;15448;51.956;7.670;2022-07-19T01:00:22;23.60;53.50
28161;DHT22;15448;51.956;7.670;2022-07-19T01:02:48;23.50;53.50
28161;DHT22;15448;51.956;7.670;2022-07-19T01:05:13;23.60;53.50
28161;DHT22;15448;51.956;7.670;2022-07-19T01:07:40;23.50;53.60
28161;DHT22;15448;51.956;7.670;2022-07-19T01:10:09;23.60;53.80
28161;DHT22;15448;51.956;7.670;2022-07-19T01:12:35;23.50;53.80
28161;DHT22;15448;51.956;7.670;2022-07-19T01:15:01;23.50;54.30
28161;DHT22;15448;51.956;7.670;2022-07-19T01:17:27;23.50;53.80
28161;DHT22;15448;51.956;7.670;2022-07-19T01:19:53;23.50;53.90
28161;DHT22;15448;51.956;7.670;2022-07-19T01:22:19;23.70;54.00
28161;DHT22;15448;51.956;7.670;2022-07-19T01:24:45;23.50;53.90
28161;DHT22;15448;51.956;7.670;2022-07-19T01:27:11;23.50;54.00
28161;DHT22;15448;51.956;7.670;2022-07-19T01:29:37;23.50;54.10
28161;DHT22;15448;51.956;7.670;2022-07-19T01:32:04;23.40;54.20
28161;DHT22;15448;51.956;7.670;2022-07-19T01:34:29;23.40;54.20
28161;DHT22;15448;51.956;7.670;2022-07-19T01:36:55;23.40;54.20
28161;DHT22;15448;51.956;7.670;2022-07-19T01:39:21;23.40;54.30
28161;DHT22;15448;51.956;7.670;2022-07-19T01:41:46;23.40;54.40
28161;DHT22;15448;51.956;7.670;2022-07-19T01:44:12;23.40;54.40
28161;DHT22;15448;51.956;7.670;2022-07-19T01:46:37;23.40;54.50
28161;DHT22;15448;51.956;7.670;2022-07-19T01:49:03;23.40;54.50
28161;DHT22;15448;51.956;7.670;2022-07-19T01:51:29;23.40;54.50
28161;DHT22;15448;51.956;7.670;2022-07-19T01:53:54;23.40;54.50
28161;DHT22;15448;51.956;7.670;2022-07-19T01:56:20;23.30;54.40
28161;DHT22;15448;51.956;7.670;2022-07-19T01:58:46;23.40;54.60
28161;DHT22;15448;51.956;7.670;2022-07-19T02:01:11;23.30;54.60
28161;DHT22;15448;51.956;7.670;2022-07-19T02:03:37;23.20;54.60
28161;DHT22;15448;51.956;7.670;2022-07-19T02:06:02;23.30;54.70
28161;DHT22;15448;51.956;7.670;2022-07-19T02:08:28;23.20;54.70
28161;DHT22;15448;51.956;7.670;2022-07-19T02:10:53;23.20;54.70
28161;DHT22;15448;51.956;7.670;2022-07-19T02:13:19;23.20;54.80
28161;DHT22;15448;51.956;7.670;2022-07-19T02:15:45;23.20;54.80
28161;DHT22;15448;51.956;7.670;2022-07-19T02:18:11;22.90;55.40
28161;DHT22;15448;51.956;7.670;2022-07-19T02:20:37;22.40;57.30
28161;DHT22;15448;51.956;7.670;2022-07-19T02:23:03;22.10;58.40
28161;DHT22;15448;51.956;7.670;2022-07-19T02:25:28;21.80;58.90
28161;DHT22;15448;51.956;7.670;2022-07-19T02:27:54;21.70;59.50
28161;DHT22;15448;51.956;7.670;2022-07-19T02:30:19;21.70;59.90
28161;DHT22;15448;51.956;7.670;2022-07-19T02:32:45;21.50;59.90
28161;DHT22;15448;51.956;7.670;2022-07-19T02:35:11;21.50;60.20
28161;DHT22;15448;51.956;7.670;2022-07-19T02:37:38;21.50;60.30
28161;DHT22;15448;51.956;7.670;2022-07-19T02:40:04;21.40;60.30
28161;DHT22;15448;51.956;7.670;2022-07-19T02:42:30;21.40;60.50
28161;DHT22;15448;51.956;7.670;2022-07-19T02:44:55;21.30;60.60
28161;DHT22;15448;51.956;7.670;2022-07-19T02:47:21;21.20;60.90
28161;DHT22;15448;51.956;7.670;2022-07-19T02:49:47;21.20;61.20
28161;DHT22;15448;51.956;7.670;2022-07-19T02:52:12;21.20;61.50
28161;DHT22;15448;51.956;7.670;2022-07-19T02:54:38;21.10;61.50
28161;DHT22;15448;51.956;7.670;2022-07-19T02:57:04;21.10;61.80
28161;DHT22;15448;51.956;7.670;2022-07-19T02:59:30;21.00;62.10
28161;DHT22;15448;51.956;7.670;2022-07-19T03:01:55;21.00;62.20
28161;DHT22;15448;51.956;7.670;2022-07-19T03:04:21;20.90;62.20
28161;DHT22;15448;51.956;7.670;2022-07-19T03:06:47;20.90;62.10
28161;DHT22;15448;51.956;7.670;2022-07-19T03:09:12;20.90;62.20
28161;DHT22;15448;51.956;7.670;2022-07-19T03:11:39;20.80;62.20
28161;DHT22;15448;51.956;7.670;2022-07-19T03:14:04;20.80;62.20
28161;DHT22;15448;51.956;7.670;2022-07-19T03:16:30;20.70;62.40
28161;DHT22;15448;51.956;7.670;2022-07-19T03:18:56;20.70;62.60
28161;DHT22;15448;51.956;7.670;2022-07-19T03:21:21;20.60;62.80
28161;DHT22;15448;51.956;7.670;2022-07-19T03:23:47;20.70;62.90
28161;DHT22;15448;51.956;7.670;2022-07-19T03:26:13;20.60;62.80
28161;DHT22;15448;51.956;7.670;2022-07-19T03:28:38;20.60;63.00
28161;DHT22;15448;51.956;7.670;2022-07-19T03:31:04;20.60;62.90
28161;DHT22;15448;51.956;7.670;2022-07-19T03:33:29;20.60;62.80
28161;DHT22;15448;51.956;7.670;2022-07-19T03:35:55;20.60;62.50
28161;DHT22;15448;51.956;7.670;2022-07-19T03:38:21;20.50;62.80
28161;DHT22;15448;51.956;7.670;2022-07-19T03:40:47;20.50;62.80
28161;DHT22;15448;51.956;7.670;2022-07-19T03:43:14;20.50;62.70
28161;DHT22;15448;51.956;7.670;2022-07-19T03:45:41;20.40;62.90
28161;DHT22;15448;51.956;7.670;2022-07-19T03:48:06;20.30;62.60
28161;DHT22;15448;51.956;7.670;2022-07-19T03:50:32;20.40;62.80
28161;DHT22;15448;51.956;7.670;2022-07-19T03:52:57;20.40;63.20
28161;DHT22;15448;51.956;7.670;2022-07-19T03:55:23;20.20;63.00
28161;DHT22;15448;51.956;7.670;2022-07-19T03:57:48;20.20;63.50
28161;DHT22;15448;51.956;7.670;2022-07-19T04:00:14;20.20;63.10
28161;DHT22;15448;51.956;7.670;2022-07-19T04:02:40;20.20;62.70
28161;DHT22;15448;51.956;7.670;2022-07-19T04:05:06;20.20;63.10
28161;DHT22;15448;51.956;7.670;2022-07-19T04:07:32;20.20;63.20
28161;DHT22;15448;51.956;7.670;2022-07-19T04:09:58;20.20;63.00
28161;DHT22;15448;51.956;7.670;2022-07-19T04:12:24;20.20;63.40
28161;DHT22;15448;51.956;7.670;2022-07-19T04:14:49;20.20;63.50
28161;DHT22;15448;51.956;7.670;2022-07-19T04:17:15;20.20;63.70
28161;DHT22;15448;51.956;7.670;2022-07-19T04:19:40;20.20;63.90
28161;DHT22;15448;51.956;7.670;2022-07-19T04:22:06;20.30;64.00
28161;DHT22;15448;51.956;7.670;2022-07-19T04:24:31;20.80;63.50
28161;DHT22;15448;51.956;7.670;2022-07-19T04:26:57;21.20;61.60
28161;DHT22;15448;51.956;7.670;2022-07-19T04:29:22;21.40;61.30
28161;DHT22;15448;51.956;7.670;2022-07-19T04:31:48;21.60;59.90
28161;DHT22;15448;51.956;7.670;2022-07-19T04:34:13;21.70;59.30
28161;DHT22;15448;51.956;7.670;2022-07-19T04:36:39;21.80;58.80
28161;DHT22;15448;51.956;7.670;2022-07-19T04:39:04;21.90;58.40
28161;DHT22;15448;51.956;7.670;2022-07-19T04:41:30;21.90;58.40
28161;DHT22;15448;51.956;7.670;2022-07-19T04:43:55;22.00;58.00
28161;DHT22;15448;51.956;7.670;2022-07-19T04:46:21;22.00;57.90
28161;DHT22;15448;51.956;7.670;2022-07-19T04:48:46;22.00;57.60
28161;DHT22;15448;51.956;7.670;2022-07-19T04:51:12;21.90;58.40
28161;DHT22;15448;51.956;7.670;2022-07-19T04:53:37;22.00;57.60
28161;DHT22;15448;51.956;7.670;2022-07-19T04:56:03;21.90;57.30
28161;DHT22;15448;51.956;7.670;2022-07-19T04:58:29;21.90;57.30
28161;DHT22;15448;51.956;7.670;2022-07-19T05:00:54;21.90;57.60
28161;DHT22;15448;51.956;7.670;2022-07-19T05:03:20;21.90;57.60
28161;DHT22;15448;51.956;7.670;2022-07-19T05:05:45;22.00;57.50
28161;DHT22;15448;51.956;7.670;2022-07-19T05:08:11;22.00;57.30
28161;DHT22;15448;51.956;7.670;2022-07-19T05:10:37;22.10;57.10
28161;DHT22;15448;51.956;7.670;2022-07-19T05:13:02;22.10;57.00
28161;DHT22;15448;51.956;7.670;2022-07-19T05:15:28;22.20;57.00
28161;DHT22;15448;51.956;7.670;2022-07-19T05:17:53;22.30;57.00
28161;DHT22;15448;51.956;7.670;2022-07-19T05:20:19;22.30;57.00
28161;DHT22;15448;51.956;7.670;2022-07-19T05:22:44;22.30;57.10
28161;DHT22;15448;51.956;7.670;2022-07-19T05:25:10;22.30;57.30
28161;DHT22;15448;51.956;7.670;2022-07-19T05:27:37;22.30;57.30
28161;DHT22;15448;51.956;7.670;2022-07-19T05:30:04;22.30;57.40
28161;DHT22;15448;51.956;7.670;2022-07-19T05:32:30;22.30;57.40
28161;DHT22;15448;51.956;7.670;2022-07-19T05:34:55;22.30;57.40
28161;DHT22;15448;51.956;7.670;2022-07-19T05:37:21;22.30;57.50
28161;DHT22;15448;51.956;7.670;2022-07-19T05:39:46;22.30;57.40
28161;DHT22;15448;51.956;7.670;2022-07-19T05:42:12;22.30;57.60
28161;DHT22;15448;51.956;7.670;2022-07-19T05:44:38;22.30;57.50
28161;DHT22;15448;51.956;7.670;2022-07-19T05:47:03;22.30;57.40
28161;DHT22;15448;51.956;7.670;2022-07-19T05:49:29;22.30;57.40
28161;DHT22;15448;51.956;7.670;2022-07-19T05:51:54;22.30;57.40
28161;DHT22;15448;51.956;7.670;2022-07-19T05:54:20;22.40;57.40
28161;DHT22;15448;51.956;7.670;2022-07-19T05:56:46;22.40;57.40
28161;DHT22;15448;51.956;7.670;2022-07-19T05:59:12;22.40;57.30
28161;DHT22;15448;51.956;7.670;2022-07-19T06:01:38;22.40;57.40
28161;DHT22;15448;51.956;7.670;2022-07-19T06:04:03;22.40;57.40
28161;DHT22;15448;51.956;7.670;2022-07-19T06:06:31;22.40;57.60
28161;DHT22;15448;51.956;7.670;2022-07-19T06:08:58;22.50;57.80
28161;DHT22;15448;51.956;7.670;2022-07-19T06:11:24;22.50;58.00
28161;DHT22;15448;51.956;7.670;2022-07-19T06:13:50;22.50;58.10
28161;DHT22;15448;51.956;7.670;2022-07-19T06:16:16;22.60;57.80
28161;DHT22;15448;51.956;7.670;2022-07-19T06:18:42;22.60;57.60
28161;DHT22;15448;51.956;7.670;2022-07-19T06:21:13;22.70;57.40
28161;DHT22;15448;51.956;7.670;2022-07-19T06:23:40;22.70;57.30
28161;DHT22;15448;51.956;7.670;2022-07-19T06:26:06;22.50;57.40
28161;DHT22;15448;51.956;7.670;2022-07-19T06:28:33;22.90;57.10
28161;DHT22;15448;51.956;7.670;2022-07-19T06:30:58;23.00;57.20
28161;DHT22;15448;51.956;7.670;2022-07-19T06:33:24;22.90;57.30
28161;DHT22;15448;51.956;7.670;2022-07-19T06:35:50;23.00;57.20
28161;DHT22;15448;51.956;7.670;2022-07-19T06:38:16;23.00;57.00
28161;DHT22;15448;51.956;7.670;2022-07-19T06:40:42;23.00;57.00
28161;DHT22;15448;51.956;7.670;2022-07-19T06:43:08;23.00;56.90
28161;DHT22;15448;51.956;7.670;2022-07-19T06:45:34;23.10;56.70
28161;DHT22;15448;51.956;7.670;2022-07-19T06:48:00;23.10;56.50
28161;DHT22;15448;51.956;7.670;2022-07-19T06:50:26;23.20;56.30
28161;DHT22;15448;51.956;7.670;2022-07-19T06:52:51;23.20;56.20
28161;DHT22;15448;51.956;7.670;2022-07-19T06:55:17;23.10;56.10
28161;DHT22;15448;51.956;7.670;2022-07-19T06:57:43;23.20;56.20
28161;DHT22;15448;51.956;7.670;2022-07-19T07:00:09;23.20;56.00
28161;DHT22;15448;51.956;7.670;2022-07-19T07:02:39;23.30;56.10
28161;DHT22;15448;51.956;7.670;2022-07-19T07:05:07;23.30;55.90
28161;DHT22;15448;51.956;7.670;2022-07-19T07:07:33;23.30;55.90
28161;DHT22;15448;51.956;7.670;2022-07-19T07:09:58;23.30;55.70
28161;DHT22;15448;51.956;7.670;2022-07-19T07:12:27;23.40;55.60
28161;DHT22;15448;51.956;7.670;2022-07-19T07:14:53;23.40;55.40
28161;DHT22;15448;51.956;7.670;2022-07-19T07:17:18;23.40;55.30
28161;DHT22;15448;51.956;7.670;2022-07-19T07:19:44;23.50;55.20
28161;DHT22;15448;51.956;7.670;2022-07-19T07:22:09;23.50;55.20
28161;DHT22;15448;51.956;7.670;2022-07-19T07:24:35;23.50;55.10
28161;DHT22;15448;51.956;7.670;2022-07-19T07:27:00;23.50;55.00
28161;DHT22;15448;51.956;7.670;2022-07-19T07:29:26;23.50;54.80
28161;DHT22;15448;51.956;7.670;2022-07-19T07:31:51;23.60;54.70
28161;DHT22;15448;51.956;7.670;2022-07-19T07:34:17;23.70;54.60
28161;DHT22;15448;51.956;7.670;2022-07-19T07:36:42;23.70;54.50
28161;DHT22;15448;51.956;7.670;2022-07-19T07:39:10;23.70;54.40
28161;DHT22;15448;51.956;7.670;2022-07-19T07:41:36;23.70;54.30
28161;DHT22;15448;51.956;7.670;2022-07-19T07:44:01;23.70;54.30
28161;DHT22;15448;51.956;7.670;2022-07-19T07:46:27;23.70;54.40
28161;DHT22;15448;51.956;7.670;2022-07-19T07:48:53;23.70;54.30
28161;DHT22;15448;51.956;7.670;2022-07-19T07:51:18;23.70;54.20
28161;DHT22;15448;51.956;7.670;2022-07-19T07:53:44;23.70;54.20
28161;DHT22;15448;51.956;7.670;2022-07-19T07:56:09;23.70;54.20
28161;DHT22;15448;51.956;7.670;2022-07-19T07:58:35;23.80;54.60
28161;DHT22;15448;51.956;7.670;2022-07-19T08:01:00;23.90;53.40
28161;DHT22;15448;51.956;7.670;2022-07-19T08:03:26;23.90;53.20
28161;DHT22;15448;51.956;7.670;2022-07-19T08:05:51;23.90;53.30
28161;DHT22;15448;51.956;7.670;2022-07-19T08:08:17;22.80;52.90
28161;DHT22;15448;51.956;7.670;2022-07-19T08:10:44;23.90;53.40
28161;DHT22;15448;51.956;7.670;2022-07-19T08:13:09;23.90;53.20
28161;DHT22;15448;51.956;7.670;2022-07-19T08:15:36;24.00;53.00
28161;DHT22;15448;51.956;7.670;2022-07-19T08:18:02;24.00;53.10
28161;DHT22;15448;51.956;7.670;2022-07-19T08:20:28;24.00;52.90
28161;DHT22;15448;51.956;7.670;2022-07-19T08:22:53;24.00;53.00
28161;DHT22;15448;51.956;7.670;2022-07-19T08:25:19;24.10;53.30
28161;DHT22;15448;51.956;7.670;2022-07-19T08:27:45;24.10;53.60
28161;DHT22;15448;51.956;7.670;2022-07-19T08:30:11;24.20;53.00
28161;DHT22;15448;51.956;7.670;2022-07-19T08:32:38;24.30;52.90
28161;DHT22;15448;51.956;7.670;2022-07-19T08:35:05;24.40;52.50
28161;DHT22;15448;51.956;7.670;2022-07-19T08:37:32;24.50;51.60
28161;DHT22;15448;51.956;7.670;2022-07-19T08:39:57;24.50;51.90
28161;DHT22;15448;51.956;7.670;2022-07-19T08:42:24;24.50;51.90
28161;DHT22;15448;51.956;7.670;2022-07-19T08:44:51;24.70;50.50
28161;DHT22;15448;51.956;7.670;2022-07-19T08:47:21;24.70;50.10
28161;DHT22;15448;51.956;7.670;2022-07-19T08:49:48;24.80;50.40
28161;DHT22;15448;51.956;7.670;2022-07-19T08:52:14;23.50;50.00
28161;DHT22;15448;51.956;7.670;2022-07-19T08:54:41;24.90;50.50
28161;DHT22;15448;51.956;7.670;2022-07-19T08:57:07;24.80;49.90
28161;DHT22;15448;51.956;7.670;2022-07-19T08:59:51;24.90;49.50
28161;DHT22;15448;51.956;7.670;2022-07-19T09:33:23;25.20;49.50
28161;DHT22;15448;51.956;7.670;2022-07-19T09:35:54;25.30;49.40
28161;DHT22;15448;51.956;7.670;2022-07-19T09:38:29;25.20;49.20
28161;DHT22;15448;51.956;7.670;2022-07-19T09:41:16;25.20;49.30
28161;DHT22;15448;51.956;7.670;2022-07-19T09:46:36;25.40;49.00
28161;DHT22;15448;51.956;7.670;2022-07-19T09:49:11;25.40;48.80
28161;DHT22;15448;51.956;7.670;2022-07-19T09:51:40;25.50;48.20
28161;DHT22;15448;51.956;7.670;2022-07-19T09:54:08;25.70;46.80
28161;DHT22;15448;51.956;7.670;2022-07-19T09:56:36;25.70;46.40
28161;DHT22;15448;51.956;7.670;2022-07-19T09:59:03;25.70;46.40
28161;DHT22;15448;51.956;7.670;2022-07-19T10:01:30;25.80;45.60
28161;DHT22;15448;51.956;7.670;2022-07-19T10:03:58;25.60;45.80
28161;DHT22;15448;51.956;7.670;2022-07-19T10:06:25;25.60;46.10
28161;DHT22;15448;51.956;7.670;2022-07-19T10:08:52;25.60;45.90
28161;DHT22;15448;51.956;7.670;2022-07-19T10:11:18;25.50;46.20
28161;DHT22;15448;51.956;7.670;2022-07-19T10:13:44;25.70;45.50
28161;DHT22;15448;51.956;7.670;2022-07-19T10:16:14;25.60;45.40
28161;DHT22;15448;51.956;7.670;2022-07-19T10:18:52;25.50;45.70
28161;DHT22;15448;51.956;7.670;2022-07-19T10:21:20;25.90;44.60
28161;DHT22;15448;51.956;7.670;2022-07-19T10:23:53;25.90;44.30
28161;DHT22;15448;51.956;7.670;2022-07-19T10:26:39;25.90;43.60
28161;DHT22;15448;51.956;7.670;2022-07-19T10:29:17;26.20;42.60
28161;DHT22;15448;51.956;7.670;2022-07-19T10:31:46;26.10;43.00
28161;DHT22;15448;51.956;7.670;2022-07-19T10:34:27;26.10;42.60
28161;DHT22;15448;51.956;7.670;2022-07-19T10:36:53;26.00;43.20
28161;DHT22;15448;51.956;7.670;2022-07-19T10:52:33;26.40;41.50
28161;DHT22;15448;51.956;7.670;2022-07-19T10:58:08;26.30;41.90
28161;DHT22;15448;51.956;7.670;2022-07-19T11:00:43;26.40;41.50
28161;DHT22;15448;51.956;7.670;2022-07-19T11:05:54;26.10;42.60
28161;DHT22;15448;51.956;7.670;2022-07-19T11:08:40;26.10;42.70
28161;DHT22;15448;51.956;7.670;2022-07-19T11:11:13;26.40;42.10
28161;DHT22;15448;51.956;7.670;2022-07-19T11:13:42;26.50;41.40
28161;DHT22;15448;51.956;7.670;2022-07-19T11:16:08;26.50;41.50
28161;DHT22;15448;51.956;7.670;2022-07-19T11:18:33;26.60;41.60
28161;DHT22;15448;51.956;7.670;2022-07-19T11:21:01;26.50;41.40
28161;DHT22;15448;51.956;7.670;2022-07-19T11:23:35;26.60;41.30
28161;DHT22;15448;51.956;7.670;2022-07-19T11:26:17;26.50;41.50
28161;DHT22;15448;51.956;7.670;2022-07-19T11:28:44;26.60;41.10
28161;DHT22;15448;51.956;7.670;2022-07-19T11:31:24;26.40;41.40
28161;DHT22;15448;51.956;7.670;2022-07-19T11:33:53;26.30;42.30
28161;DHT22;15448;51.956;7.670;2022-07-19T11:36:21;26.40;42.50
28161;DHT22;15448;51.956;7.670;2022-07-19T11:38:50;26.60;41.70
28161;DHT22;15448;51.956;7.670;2022-07-19T11:41:20;26.50;41.70
28161;DHT22;15448;51.956;7.670;2022-07-19T11:44:00;26.50;42.10
28161;DHT22;15448;51.956;7.670;2022-07-19T11:46:28;26.30;42.40
28161;DHT22;15448;51.956;7.670;2022-07-19T11:49:00;26.30;42.30
28161;DHT22;15448;51.956;7.670;2022-07-19T11:51:26;26.40;42.00
28161;DHT22;15448;51.956;7.670;2022-07-19T11:53:54;26.50;41.90
28161;DHT22;15448;51.956;7.670;2022-07-19T11:56:25;26.30;42.10
28161;DHT22;15448;51.956;7.670;2022-07-19T11:58:52;26.20;42.80
28161;DHT22;15448;51.956;7.670;2022-07-19T12:01:27;26.00;42.80
28161;DHT22;15448;51.956;7.670;2022-07-19T12:04:05;25.90;43.20
28161;DHT22;15448;51.956;7.670;2022-07-19T12:06:42;25.80;43.40
28161;DHT22;15448;51.956;7.670;2022-07-19T12:09:13;25.80;43.90
28161;DHT22;15448;51.956;7.670;2022-07-19T12:11:47;25.70;44.10
28161;DHT22;15448;51.956;7.670;2022-07-19T12:16:51;25.60;44.00
28161;DHT22;15448;51.956;7.670;2022-07-19T12:19:33;25.60;44.20
28161;DHT22;15448;51.956;7.670;2022-07-19T12:21:58;25.60;44.20
28161;DHT22;15448;51.956;7.670;2022-07-19T12:24:25;25.50;44.00
28161;DHT22;15448;51.956;7.670;2022-07-19T12:29:36;25.40;44.50
28161;DHT22;15448;51.956;7.670;2022-07-19T12:32:11;25.40;44.70
28161;DHT22;15448;51.956;7.670;2022-07-19T12:34:51;25.50;44.70
28161;DHT22;15448;51.956;7.670;2022-07-19T12:37:30;25.40;44.90
28161;DHT22;15448;51.956;7.670;2022-07-19T12:40:08;25.70;45.30
28161;DHT22;15448;51.956;7.670;2022-07-19T12:42:50;25.80;45.90
28161;DHT22;15448;51.956;7.670;2022-07-19T12:45:21;25.90;45.70
28161;DHT22;15448;51.956;7.670;2022-07-19T12:47:48;26.00;45.60
28161;DHT22;15448;51.956;7.670;2022-07-19T12:52:48;25.90;45.50
28161;DHT22;15448;51.956;7.670;2022-07-19T12:55:14;26.00;45.40
28161;DHT22;15448;51.956;7.670;2022-07-19T12:57:40;26.10;45.40
28161;DHT22;15448;51.956;7.670;2022-07-19T13:00:06;26.10;45.20
28161;DHT22;15448;51.956;7.670;2022-07-19T13:02:32;26.10;45.50
28161;DHT22;15448;51.956;7.670;2022-07-19T13:04:57;26.10;45.00
28161;DHT22;15448;51.956;7.670;2022-07-19T13:07:23;26.20;44.90
28161;DHT22;15448;51.956;7.670;2022-07-19T13:09:49;26.10;44.70
28161;DHT22;15448;51.956;7.670;2022-07-19T13:12:14;26.00;44.80
28161;DHT22;15448;51.956;7.670;2022-07-19T13:14:40;26.10;44.80
28161;DHT22;15448;51.956;7.670;2022-07-19T13:17:06;26.10;44.70
28161;DHT22;15448;51.956;7.670;2022-07-19T13:19:36;26.20;44.60
28161;DHT22;15448;51.956;7.670;2022-07-19T13:22:02;26.10;44.30
28161;DHT22;15448;51.956;7.670;2022-07-19T13:24:27;26.10;44.30
28161;DHT22;15448;51.956;7.670;2022-07-19T13:26:53;26.10;44.30
28161;DHT22;15448;51.956;7.670;2022-07-19T13:29:19;26.10;44.20
28161;DHT22;15448;51.956;7.670;2022-07-19T13:31:44;26.20;44.30
28161;DHT22;15448;51.956;7.670;2022-07-19T13:34:10;26.20;44.40
28161;DHT22;15448;51.956;7.670;2022-07-19T13:36:35;26.20;44.30
28161;DHT22;15448;51.956;7.670;2022-07-19T13:39:01;26.20;44.00
28161;DHT22;15448;51.956;7.670;2022-07-19T13:41:27;26.00;44.00
28161;DHT22;15448;51.956;7.670;2022-07-19T13:43:52;26.10;44.70
28161;DHT22;15448;51.956;7.670;2022-07-19T13:46:19;26.20;44.80
28161;DHT22;15448;51.956;7.670;2022-07-19T13:48:46;26.30;44.90
28161;DHT22;15448;51.956;7.670;2022-07-19T13:51:12;26.30;44.90
28161;DHT22;15448;51.956;7.670;2022-07-19T13:53:37;26.40;45.10
28161;DHT22;15448;51.956;7.670;2022-07-19T13:56:04;26.40;45.00
28161;DHT22;15448;51.956;7.670;2022-07-19T13:58:30;26.40;45.00
28161;DHT22;15448;51.956;7.670;2022-07-19T14:00:55;26.40;44.90
28161;DHT22;15448;51.956;7.670;2022-07-19T14:03:21;26.50;45.10
28161;DHT22;15448;51.956;7.670;2022-07-19T14:05:47;26.40;44.50
28161;DHT22;15448;51.956;7.670;2022-07-19T14:08:13;26.30;44.70
28161;DHT22;15448;51.956;7.670;2022-07-19T14:10:39;26.30;44.70
28161;DHT22;15448;51.956;7.670;2022-07-19T14:13:06;26.40;44.80
28161;DHT22;15448;51.956;7.670;2022-07-19T14:15:32;26.50;44.80
28161;DHT22;15448;51.956;7.670;2022-07-19T14:17:58;26.50;44.70
28161;DHT22;15448;51.956;7.670;2022-07-19T14:20:24;26.50;44.60
28161;DHT22;15448;51.956;7.670;2022-07-19T14:22:50;26.50;44.70
28161;DHT22;15448;51.956;7.670;2022-07-19T14:25:16;26.50;44.60
28161;DHT22;15448;51.956;7.670;2022-07-19T14:27:42;26.50;44.40
28161;DHT22;15448;51.956;7.670;2022-07-19T14:30:08;26.50;44.30
28161;DHT22;15448;51.956;7.670;2022-07-19T14:32:33;26.50;44.30
28161;DHT22;15448;51.956;7.670;2022-07-19T14:34:59;26.50;44.30
28161;DHT22;15448;51.956;7.670;2022-07-19T14:37:25;26.60;44.00
28161;DHT22;15448;51.956;7.670;2022-07-19T14:39:51;26.60;43.50
28161;DHT22;15448;51.956;7.670;2022-07-19T14:42:16;26.50;43.40
28161;DHT22;15448;51.956;7.670;2022-07-19T14:44:42;26.60;43.30
28161;DHT22;15448;51.956;7.670;2022-07-19T14:47:08;26.70;43.00
28161;DHT22;15448;51.956;7.670;2022-07-19T14:49:35;26.70;42.90
28161;DHT22;15448;51.956;7.670;2022-07-19T14:52:00;26.70;42.70
28161;DHT22;15448;51.956;7.670;2022-07-19T14:54:26;26.80;42.40
28161;DHT22;15448;51.956;7.670;2022-07-19T14:56:52;26.80;41.90
28161;DHT22;15448;51.956;7.670;2022-07-19T14:59:19;26.90;41.60
28161;DHT22;15448;51.956;7.670;2022-07-19T15:01:45;26.70;41.90
28161;DHT22;15448;51.956;7.670;2022-07-19T15:04:11;26.60;42.00
28161;DHT22;15448;51.956;7.670;2022-07-19T15:06:37;26.60;42.30
28161;DHT22;15448;51.956;7.670;2022-07-19T15:09:02;26.70;42.40
28161;DHT22;15448;51.956;7.670;2022-07-19T15:11:28;26.60;42.30
28161;DHT22;15448;51.956;7.670;2022-07-19T15:14:00;26.70;42.30
28161;DHT22;15448;51.956;7.670;2022-07-19T15:16:27;26.70;42.10
28161;DHT22;15448;51.956;7.670;2022-07-19T15:18:52;26.80;41.90
28161;DHT22;15448;51.956;7.670;2022-07-19T15:21:19;26.70;41.70
28161;DHT22;15448;51.956;7.670;2022-07-19T15:23:44;26.80;41.50
28161;DHT22;15448;51.956;7.670;2022-07-19T15:26:11;26.80;41.60
28161;DHT22;15448;51.956;7.670;2022-07-19T15:28:37;26.70;41.80
28161;DHT22;15448;51.956;7.670;2022-07-19T15:31:04;26.80;41.90
28161;DHT22;15448;51.956;7.670;2022-07-19T15:33:30;26.80;41.60
28161;DHT22;15448;51.956;7.670;2022-07-19T15:35:56;26.80;41.60
28161;DHT22;15448;51.956;7.670;2022-07-19T15:38:21;26.70;42.00
28161;DHT22;15448;51.956;7.670;2022-07-19T15:40:47;26.70;41.90
28161;DHT22;15448;51.956;7.670;2022-07-19T15:43:13;26.80;41.60
28161;DHT22;15448;51.956;7.670;2022-07-19T15:45:38;26.80;41.60
28161;DHT22;15448;51.956;7.670;2022-07-19T15:48:04;26.80;41.60
28161;DHT22;15448;51.956;7.670;2022-07-19T15:50:30;26.80;41.70
28161;DHT22;15448;51.956;7.670;2022-07-19T15:52:55;26.70;42.00
28161;DHT22;15448;51.956;7.670;2022-07-19T15:55:21;26.70;42.30
28161;DHT22;15448;51.956;7.670;2022-07-19T15:57:46;26.80;41.50
28161;DHT22;15448;51.956;7.670;2022-07-19T16:00:12;26.50;38.90
28161;DHT22;15448;51.956;7.670;2022-07-19T16:02:38;27.40;38.70
28161;DHT22;15448;51.956;7.670;2022-07-19T16:05:06;27.40;39.20
28161;DHT22;15448;51.956;7.670;2022-07-19T16:07:32;27.30;39.80
28161;DHT22;15448;51.956;7.670;2022-07-19T16:09:57;27.40;39.20
28161;DHT22;15448;51.956;7.670;2022-07-19T16:12:23;27.40;39.60
28161;DHT22;15448;51.956;7.670;2022-07-19T16:14:49;27.50;39.00
28161;DHT22;15448;51.956;7.670;2022-07-19T16:17:20;27.30;39.50
28161;DHT22;15448;51.956;7.670;2022-07-19T16:19:46;27.30;39.70
28161;DHT22;15448;51.956;7.670;2022-07-19T16:22:12;27.30;39.80
28161;DHT22;15448;51.956;7.670;2022-07-19T16:24:37;27.20;40.10
28161;DHT22;15448;51.956;7.670;2022-07-19T16:27:03;27.30;40.00
28161;DHT22;15448;51.956;7.670;2022-07-19T16:55:22;27.60;38.20